メインページ
METAR-TAF:

METAR-TAF

空港 :

八戸, 日本

八戸航空基地

緯度: 40-33N, 経度: 141-28E, 海抜: 46m

現時点の気象観測

当レポートは17時間28分前の06:20(UTC)に作成
西の風 16kt、最大26ktの突風を伴う、西/南西から北西の間で変化する
気温 -2°C
湿度 59%
気圧 1014 hPa
視程10km以上
高度2000ftの雲はほとんどない
高度3000ftの雲は散在している

METAR: RJSH 180620Z 28016G26KT 250V310 9999 FEW020 SCT030 M02/M09 Q1014 RMK 1CU020 4CU030 A2996

時間: 08:48 (23:48 UTC)


TAF: 見つかりません

4,000以上の空港の気象観測と天気予報(METAR報とTAF報)

利用可能な観測所は地図上に黄色い丸と赤い丸で示す。

丸の上にカーソルを重ねると観測所名を参照できる。

次にクリックすると気象観測と天気予報を参照できる。

マップの切り替え:黒色「×」印の緑ボタンをクリックして拡大、「-」印の緑ボタンをクリックして縮小、緑色の三角印をクリックして隣りの地図に切り替え


METAR-TAF: